Impacts METAR Board
IDs:

KJAN - Jackson/Evers Intl, MS, US

Updated at: 0200 UTC 23 Oct 2018
Potential Impact None Slight Moderate High
Time 22/14Z 22/15Z 22/16Z 22/17Z 22/18Z 22/19Z 22/20Z 22/21Z 22/22Z 22/23Z 23/00Z 23/01Z 23/02Z
Temp49 57 60 64 68 68 70 69 67 63 59 58 57
Dewpt40 43 41 42 42 41 43 45 46 51 52 52 52
Altim30.25 30.26 30.25 30.24 30.21 30.18 30.17 30.16 30.15 30.15 30.16 30.18 30.18
VIS10 10 10 10 10 10 10 10 10 10 10 10 10
CIG-- -- 250 250 250 250 250 250 250 250 250 -- --
CoverCLRCLRBKNBKNBKNBKNBKNBKNBKNBKNBKNSCTSCT
FltCatVFRVFRVFRVFRVFRVFRVFRVFRVFRVFRVFRVFRVFR
WX--------------------------
WDir0000050360350360000
WSpd0 0 3 0 0 6 8 4 3 0 0 0
WGst-- -- -- -- -- -- -- -- -- -- -- -- --
Raw hourly METARs
KJAN 221354Z 00000KT 10SM CLR 09/04 A3025 RMK AO2 SLP241 T00940044
KJAN 221454Z 00000KT 10SM CLR 14/06 A3026 RMK AO2 SLP246 T01390061 53010
KJAN 221554Z VRB03KT 10SM BKN250 16/05 A3025 RMK AO2 SLP243 T01560050
KJAN 221654Z 00000KT 10SM BKN250 18/06 A3024 RMK AO2 SLP238 T01780056
KJAN 221754Z 10SM BKN250 20/06 A3021 RMK AO2 SLP227 T02000056 10200 20039 58018
KJAN 221854Z 00000KT 10SM BKN250 20/05 A3018 RMK AO2 SLP218 T02000050
KJAN 221954Z 05006KT 10SM BKN250 21/06 A3017 RMK AO2 SLP213 T02110061
KJAN 222054Z 36008KT 10SM BKN250 21/07 A3016 RMK AO2 SLP210 T02060072 56017
KJAN 222154Z 35004KT 10SM BKN250 19/08 A3015 RMK AO2 SLP209 T01940078
KJAN 222254Z 36003KT 10SM SCT150 BKN250 17/11 A3015 RMK AO2 SLP209 T01720106
KJAN 222354Z 00000KT 10SM SCT150 BKN250 15/11 A3016 RMK AO2 SLP213 T01500111 10211 20150 53002
KJAN 230054Z 00000KT 10SM SCT250 14/11 A3018 RMK AO2 SLP218 T01440111
KJAN 230154Z 00000KT 10SM SCT250 14/11 A3018 RMK AO2 SLP219 T01390111



Page loaded:  02:41 UTC  |   07:41 PM Pacific  |   08:41 PM Mountain  |   09:41 PM Central  |   10:41 PM Eastern

 

ADVISORIES

FORECASTS

FORECASTS

OBSERVATIONS

USER TOOLS

ABOUT US